Terminal Aerodrome Forecast
Issued by NWS

Home | Current Version | Previous Version | Text Only | Print | Product List | Glossary On
Versions: 1 2 3 4 5 6 7 8 9 10 11 12 13 14 15 16
000
FTUS42 KTAE 260956 AAA
TAFDHN
TAF AMD
KDHN 260956Z 2610/2706 30004KT P6SM SCT005
      TEMPO 2610/2614 3SM BR BKN004
     FM261500 36008KT P6SM SCT040=

USA.gov is the U.S. government's official web portal to all federal, state and local government web resources and services.